Laramie Regional Airport
KLAR : now visible

Airfield :











YOU CAN JOIN US ON...

 
LOGIN :

Register | Disclaimer

   EN    FR    IT 

 









Legend :    VFR   Marginal VFR   IFR   Intensive IFR   Very Intensive IFR
Visi :
Ceiling :
>= 8 km
>= 3000ft
5 to 8 km
1000 to 3000 ft
1500m to 5 km
500 to 1000 ft
800 to 1500m
200 to 500 ft
< 800m
< 200 ft
Symbols :   Thunderstorms  Fog  Heavy snow  Heavy precipitations  Wind > 20 kt






- Airport Elevation : 7284 ft
- IATA code : LAR


KLAR - Laramie Regional

CURRENT METAR :
  • 250453Z AUTO 18010KT 10SM CLR 16/06 A3018 RMK AO2 SLP088 T01560056

EXPIRED METARs :
  • 250353Z AUTO 17008KT 10SM CLR 16/07 A3018 RMK AO2 SLP090 T01560067
  • 250253Z AUTO 22010KT 10SM CLR 18/07 A3018 RMK AO2 SLP094 T01830067 55008
  • 250153Z AUTO 23012KT 10SM CLR 22/06 A3018 RMK AO2 WSHFT 0105 SLP093 T02170056
  • 250125Z AUTO 21012G21KT 10SM CLR 23/06 A3018 RMK AO2 WSHFT 0105 T02280056
  • 250053Z AUTO 11007KT 10SM CLR 23/08 A3019 RMK AO2 SLP100 T02280078
  • 242353Z AUTO 26015G27KT 10SM CLR 21/07 A3021 RMK AO2 PK WND 29034/2310 WSHFT 2257 LTG DSNT SE RAB09E31 SLP125 P0008 60009 T02060067 10300 20178 53000

TAF KLAR
Valid from the 25 at 00:00 until the 26 at 00:00 UTC


242320Z 2500/2524 24015G25KT P6SM VCTS BKN100CB
TEMPO 2500/2502 VRB20G35KT -TSRA BKN060CB
FM250200 20012KT P6SM SCT100
FM251500 30013G23KT P6SM SKC
KZDV FIR / North America



MET'MAP, your aeronautical weather chart ! - Copyright ORBIFLY December 2007 - Disclaimer

ORBIFLY MET'MAP TEAM :

Programming & Development : Alexandra Zaïnal
Original concept : Baudouin d'Aumeries
Technical & hardware support : Manuel Goepfert
Assistance : Marc-Olivier Méhu




SOURCES & CREDITS :

   NOAA       Earth
Advisory